createdAt,value
2022-09-20T00:00:11.060Z,1.10
2022-09-20T00:03:17.287Z,0.90
2022-09-20T00:06:29.055Z,0.90
2022-09-20T00:09:34.208Z,0.73
2022-09-20T00:12:39.164Z,0.90
2022-09-20T00:15:45.542Z,0.98
2022-09-20T00:18:51.341Z,0.90
2022-09-20T00:21:59.005Z,0.95
2022-09-20T00:25:04.205Z,1.00
2022-09-20T00:28:09.413Z,0.82
2022-09-20T00:31:14.949Z,1.00
2022-09-20T00:34:32.482Z,0.90
2022-09-20T00:37:41.241Z,0.80
2022-09-20T00:43:50.956Z,0.90
2022-09-20T00:46:56.302Z,0.85
2022-09-20T00:50:04.340Z,0.90
2022-09-20T00:53:14.697Z,1.10
2022-09-20T00:56:22.593Z,0.90
2022-09-20T00:59:30.530Z,1.15
2022-09-20T01:02:36.533Z,0.93
2022-09-20T01:05:42.649Z,0.90
2022-09-20T01:08:51.856Z,0.90
2022-09-20T01:11:58.491Z,0.85
2022-09-20T01:15:04.765Z,0.90
2022-09-20T01:18:10.725Z,0.88
2022-09-20T01:21:16.787Z,0.90
2022-09-20T01:24:26.252Z,1.58
2022-09-20T01:27:51.813Z,0.80
2022-09-20T01:31:03.064Z,0.95
2022-09-20T01:34:10.937Z,1.00
2022-09-20T01:37:19.469Z,0.80
2022-09-20T01:43:33.255Z,0.80
2022-09-20T01:46:41.251Z,0.95
2022-09-20T01:49:48.605Z,1.20
2022-09-20T01:53:09.038Z,0.80
2022-09-20T01:56:28.104Z,0.85
2022-09-20T01:59:57.256Z,1.00
2022-09-20T02:03:13.270Z,0.80
2022-09-20T02:06:24.637Z,0.95
2022-09-20T02:09:42.561Z,0.85
2022-09-20T02:12:54.832Z,0.90
2022-09-20T02:16:08.070Z,0.90
2022-09-20T02:19:44.697Z,1.00
2022-09-20T02:23:02.977Z,0.93
2022-09-20T02:29:20.539Z,0.90
2022-09-20T02:32:32.152Z,0.80
2022-09-20T02:35:45.316Z,0.73
2022-09-20T02:38:57.729Z,0.85
2022-09-20T02:42:07.152Z,0.93
2022-09-20T02:45:15.382Z,1.05
2022-09-20T02:51:32.392Z,1.00
2022-09-20T02:54:41.344Z,0.90
2022-09-20T02:57:50.735Z,1.10
2022-09-20T03:00:57.370Z,0.80
2022-09-20T03:04:11.095Z,0.70
2022-09-20T03:07:21.962Z,0.80
2022-09-20T03:10:31.920Z,0.80
2022-09-20T03:13:46.585Z,0.95
2022-09-20T03:16:55.515Z,0.90
2022-09-20T03:20:08.359Z,1.00
2022-09-20T03:23:21.232Z,1.10
2022-09-20T03:26:32.183Z,1.00
2022-09-20T03:29:43.914Z,0.90
2022-09-20T03:32:55.390Z,1.10
2022-09-20T03:36:08.961Z,0.90
2022-09-20T03:39:31.546Z,0.90
2022-09-20T03:42:44.204Z,0.90
2022-09-20T03:45:56.616Z,0.88
2022-09-20T03:49:22.207Z,0.93
2022-09-20T03:52:44.015Z,1.00
2022-09-20T03:55:56.287Z,0.90
2022-09-20T03:59:15.276Z,1.00
2022-09-20T04:02:30.260Z,0.93
2022-09-20T04:05:45.872Z,1.05
2022-09-20T04:09:08.021Z,0.90
2022-09-20T04:12:16.147Z,1.10
2022-09-20T04:15:29.105Z,1.65
2022-09-20T04:18:39.024Z,1.02
2022-09-20T04:21:48.524Z,1.08
2022-09-20T04:24:56.927Z,1.10
2022-09-20T04:28:03.104Z,1.30
2022-09-20T04:31:15.733Z,1.50
2022-09-20T04:34:22.855Z,1.42
2022-09-20T04:37:27.905Z,1.13
2022-09-20T04:40:41.556Z,1.20
2022-09-20T04:44:13.814Z,1.23
2022-09-20T04:47:38.532Z,1.10
2022-09-20T04:51:01.511Z,1.67
2022-09-20T04:54:23.516Z,1.02
2022-09-20T04:57:39.961Z,1.85
2022-09-20T05:00:54.135Z,0.90
2022-09-20T05:04:25.371Z,1.20
2022-09-20T05:07:42.648Z,1.20
2022-09-20T05:11:02.834Z,1.00
2022-09-20T05:14:23.302Z,1.08
2022-09-20T05:17:37.335Z,1.05
2022-09-20T05:21:00.361Z,1.60
2022-09-20T05:24:10.777Z,1.20
2022-09-20T05:27:24.468Z,1.17
2022-09-20T05:30:34.651Z,1.25
2022-09-20T05:33:44.023Z,1.10
2022-09-20T05:36:57.507Z,1.20
2022-09-20T05:40:04.956Z,1.17
2022-09-20T05:43:13.947Z,1.00
2022-09-20T05:46:20.736Z,1.38
2022-09-20T05:49:35.491Z,1.67
2022-09-20T05:52:47.879Z,1.40
2022-09-20T05:55:57.025Z,1.20
2022-09-20T05:59:13.150Z,1.20
2022-09-20T06:02:24.924Z,1.10
2022-09-20T06:05:36.320Z,1.10
2022-09-20T06:08:50.381Z,1.20
2022-09-20T06:12:13.201Z,1.55
2022-09-20T06:15:22.125Z,1.33
2022-09-20T06:18:29.500Z,1.23
2022-09-20T06:21:42.891Z,1.20
2022-09-20T06:24:52.433Z,1.10
2022-09-20T06:27:59.456Z,1.20
2022-09-20T06:31:07.574Z,1.23
2022-09-20T06:34:13.759Z,1.20
2022-09-20T06:37:36.820Z,1.00
2022-09-20T06:41:14.991Z,1.23
2022-09-20T06:44:20.062Z,1.20
2022-09-20T06:47:26.404Z,1.10
2022-09-20T06:50:32.945Z,1.38
2022-09-20T06:53:40.460Z,1.20
2022-09-20T06:56:48.619Z,1.40
2022-09-20T06:59:53.609Z,1.20
2022-09-20T07:02:58.972Z,1.00
2022-09-20T07:06:04.628Z,0.95
2022-09-20T07:09:09.950Z,1.35
2022-09-20T07:12:18.442Z,1.50
2022-09-20T07:15:25.073Z,1.33
2022-09-20T07:18:30.521Z,1.23
2022-09-20T07:21:35.855Z,1.10
2022-09-20T07:24:41.444Z,1.35
2022-09-20T07:27:50.711Z,1.30
2022-09-20T07:30:55.686Z,1.30
2022-09-20T07:34:00.732Z,1.40
2022-09-20T07:37:06.035Z,1.40
2022-09-20T07:40:12.034Z,1.50
2022-09-20T07:43:20.350Z,1.48
2022-09-20T07:46:25.435Z,1.30
2022-09-20T07:49:31.757Z,1.23
2022-09-20T07:52:36.953Z,1.35
2022-09-20T07:55:42.388Z,1.40
2022-09-20T07:58:52.541Z,1.45
2022-09-20T08:01:59.205Z,1.30
2022-09-20T08:05:05.050Z,1.20
2022-09-20T08:08:10.768Z,1.30
2022-09-20T08:11:17.339Z,1.00
2022-09-20T08:14:25.567Z,1.38
2022-09-20T08:17:30.670Z,1.20
2022-09-20T08:20:38.574Z,0.93
2022-09-20T08:23:44.547Z,1.00
2022-09-20T08:26:49.846Z,1.10
2022-09-20T08:29:57.728Z,1.40
2022-09-20T08:33:02.970Z,1.38
2022-09-20T08:36:08.327Z,1.10
2022-09-20T08:42:44.493Z,1.17
2022-09-20T08:45:52.558Z,1.25
2022-09-20T08:48:57.822Z,1.50
2022-09-20T08:52:04.351Z,1.00
2022-09-20T08:55:17.197Z,1.20
2022-09-20T08:58:22.244Z,0.95
2022-09-20T09:01:32.637Z,1.20
2022-09-20T09:04:39.057Z,1.25
2022-09-20T09:07:44.025Z,1.00
2022-09-20T09:10:54.384Z,1.10
2022-09-20T09:14:02.418Z,1.30
2022-09-20T09:17:11.875Z,1.30
2022-09-20T09:20:21.961Z,1.20
2022-09-20T09:23:30.248Z,1.50
2022-09-20T09:26:39.278Z,1.30
2022-09-20T09:29:53.298Z,1.42
2022-09-20T09:33:24.024Z,1.40
2022-09-20T09:36:29.515Z,1.52
2022-09-20T09:39:35.856Z,1.52
2022-09-20T09:42:50.816Z,1.20
2022-09-20T09:45:56.238Z,1.20
2022-09-20T09:49:12.843Z,1.10
2022-09-20T09:52:33.515Z,1.35
2022-09-20T09:55:43.644Z,1.20
2022-09-20T09:58:56.573Z,1.30
2022-09-20T10:02:05.041Z,1.20
2022-09-20T10:05:15.379Z,1.27
2022-09-20T10:08:26.366Z,1.02
2022-09-20T10:11:38.316Z,1.52
2022-09-20T10:14:49.525Z,1.20
2022-09-20T10:17:57.705Z,1.60
2022-09-20T10:21:11.565Z,1.52
2022-09-20T10:24:22.631Z,1.38
2022-09-20T10:27:36.088Z,1.20
2022-09-20T10:30:48.164Z,1.17
2022-09-20T10:34:03.214Z,1.10
2022-09-20T10:37:16.717Z,1.27
2022-09-20T10:40:26.839Z,1.35
2022-09-20T10:43:34.314Z,0.85
2022-09-20T10:46:46.034Z,1.20
2022-09-20T10:49:56.877Z,1.33
2022-09-20T10:53:10.340Z,1.20
2022-09-20T10:56:24.041Z,1.00
2022-09-20T10:59:37.381Z,1.13
2022-09-20T11:02:47.808Z,1.52
2022-09-20T11:06:00.200Z,1.17
2022-09-20T11:09:13.900Z,1.67
2022-09-20T11:12:25.004Z,1.05
2022-09-20T11:15:32.788Z,1.10
2022-09-20T11:18:40.685Z,1.33
2022-09-20T11:21:48.844Z,1.17
2022-09-20T11:24:59.157Z,1.42
2022-09-20T11:28:06.403Z,1.10
2022-09-20T11:31:14.822Z,1.35
2022-09-20T11:34:24.013Z,1.30
2022-09-20T11:37:33.556Z,1.52
2022-09-20T11:40:44.586Z,1.90
2022-09-20T11:43:50.291Z,1.65
2022-09-20T11:46:58.750Z,1.52
2022-09-20T11:50:18.808Z,1.60
2022-09-20T11:53:36.459Z,1.45
2022-09-20T11:56:52.085Z,1.60
2022-09-20T11:59:58.924Z,1.38
2022-09-20T12:03:04.286Z,1.67
2022-09-20T12:06:11.913Z,1.90
2022-09-20T12:09:26.071Z,1.48
2022-09-20T12:12:38.251Z,1.20
2022-09-20T12:15:43.453Z,2.30
2022-09-20T12:19:04.226Z,2.00
2022-09-20T12:22:19.677Z,1.85
2022-09-20T12:25:42.024Z,2.38
2022-09-20T12:28:50.924Z,2.03
2022-09-20T12:31:56.930Z,1.60
2022-09-20T12:35:02.354Z,2.00
2022-09-20T12:38:20.034Z,1.70
2022-09-20T12:41:28.552Z,1.80
2022-09-20T12:44:39.412Z,2.20
2022-09-20T12:47:54.647Z,2.00
2022-09-20T12:51:19.213Z,2.10
2022-09-20T12:54:24.992Z,1.90
2022-09-20T12:57:32.394Z,2.00
2022-09-20T13:00:42.953Z,2.70
2022-09-20T13:03:48.712Z,3.72
2022-09-20T13:06:54.425Z,3.30
2022-09-20T13:10:00.073Z,2.88
2022-09-20T13:13:08.790Z,2.38
2022-09-20T13:16:22.726Z,2.40
2022-09-20T13:19:30.710Z,3.00
2022-09-20T13:22:42.272Z,2.75
2022-09-20T13:25:48.046Z,2.83
2022-09-20T13:28:55.772Z,3.15
2022-09-20T13:32:15.691Z,2.30
2022-09-20T13:35:24.569Z,3.00
2022-09-20T13:38:30.978Z,2.20
2022-09-20T13:41:36.592Z,2.70
2022-09-20T13:44:42.158Z,2.78
2022-09-20T13:47:50.774Z,2.92
2022-09-20T13:54:20.184Z,2.40
2022-09-20T13:57:27.706Z,1.92
2022-09-20T14:00:33.294Z,2.03
2022-09-20T14:03:39.272Z,2.15
2022-09-20T14:06:44.666Z,1.90
2022-09-20T14:09:52.384Z,2.30
2022-09-20T14:12:57.848Z,1.80
2022-09-20T14:16:03.530Z,2.00
2022-09-20T14:19:09.041Z,2.30
2022-09-20T14:22:19.168Z,2.15
2022-09-20T14:25:28.537Z,2.15
2022-09-20T14:28:33.491Z,2.22
2022-09-20T14:31:39.161Z,2.75
2022-09-20T14:34:44.471Z,2.60
2022-09-20T14:37:51.415Z,2.90
2022-09-20T14:40:59.786Z,2.42
2022-09-20T14:44:05.823Z,3.10
2022-09-20T14:47:16.805Z,3.30
2022-09-20T14:50:26.638Z,2.80
2022-09-20T14:53:32.243Z,5.75
2022-09-20T14:56:40.872Z,3.03
2022-09-20T14:59:46.381Z,2.70
2022-09-20T15:02:52.216Z,3.05
2022-09-20T15:05:57.338Z,3.05
2022-09-20T15:09:02.832Z,2.85
2022-09-20T15:12:15.039Z,3.05
2022-09-20T15:15:20.753Z,2.85
2022-09-20T15:18:27.008Z,3.25
2022-09-20T15:21:32.392Z,3.38
2022-09-20T15:24:37.505Z,3.08
2022-09-20T15:27:46.628Z,2.92
2022-09-20T15:30:53.247Z,3.08
2022-09-20T15:33:58.377Z,3.17
2022-09-20T15:37:03.536Z,2.88
2022-09-20T15:40:09.951Z,3.10
2022-09-20T15:43:19.921Z,3.13
2022-09-20T15:46:27.421Z,3.22
2022-09-20T15:49:33.532Z,3.42
2022-09-20T15:52:40.098Z,3.20
2022-09-20T15:55:46.202Z,2.90
2022-09-20T15:58:59.280Z,2.90
2022-09-20T16:02:04.874Z,2.90
2022-09-20T16:05:11.226Z,2.55
2022-09-20T16:08:16.342Z,3.13
2022-09-20T16:11:23.331Z,2.55
2022-09-20T16:14:30.922Z,2.80
2022-09-20T16:17:48.475Z,3.87
2022-09-20T16:20:53.606Z,3.30
2022-09-20T16:23:59.829Z,2.83
2022-09-20T16:27:06.492Z,3.20
2022-09-20T16:30:15.434Z,3.70
2022-09-20T16:33:20.767Z,4.22
2022-09-20T16:36:27.623Z,3.92
2022-09-20T16:39:33.628Z,4.40
2022-09-20T16:42:39.005Z,3.47
2022-09-20T16:45:47.362Z,3.83
2022-09-20T16:48:55.049Z,4.32
2022-09-20T16:52:00.233Z,3.65
2022-09-20T16:55:05.371Z,3.38
2022-09-20T16:58:10.641Z,3.78
2022-09-20T17:01:18.522Z,4.28
2022-09-20T17:04:24.195Z,4.22
2022-09-20T17:07:29.175Z,4.10
2022-09-20T17:10:34.397Z,4.70
2022-09-20T17:13:39.958Z,4.00
2022-09-20T17:16:48.859Z,4.88
2022-09-20T17:19:55.070Z,4.70
2022-09-20T17:23:00.424Z,4.80
2022-09-20T17:26:07.114Z,4.07
2022-09-20T17:29:14.214Z,4.43
2022-09-20T17:32:21.765Z,4.63
2022-09-20T17:35:28.657Z,4.65
2022-09-20T17:38:36.565Z,4.68
2022-09-20T17:41:42.352Z,5.07
2022-09-20T17:44:47.271Z,4.57
2022-09-20T17:47:57.925Z,4.22
2022-09-20T17:51:03.284Z,4.97
2022-09-20T17:54:08.725Z,4.65
2022-09-20T17:57:13.904Z,4.13
2022-09-20T18:00:19.005Z,4.50
2022-09-20T18:03:26.685Z,4.35
2022-09-20T18:06:32.726Z,5.10
2022-09-20T18:09:38.134Z,4.53
2022-09-20T18:12:43.208Z,4.63
2022-09-20T18:15:48.525Z,4.70
2022-09-20T18:18:56.489Z,5.10
2022-09-20T18:22:01.874Z,4.50
2022-09-20T18:25:07.554Z,4.97
2022-09-20T18:28:12.607Z,5.63
2022-09-20T18:31:18.116Z,5.22
2022-09-20T18:34:27.005Z,4.95
2022-09-20T18:37:32.353Z,5.30
2022-09-20T18:40:38.520Z,5.25
2022-09-20T18:43:45.293Z,6.65
2022-09-20T18:46:51.028Z,5.43
2022-09-20T18:49:58.966Z,5.47
2022-09-20T18:53:04.119Z,5.22
2022-09-20T18:56:10.327Z,5.93
2022-09-20T18:59:17.898Z,5.35
2022-09-20T19:02:37.986Z,5.40
2022-09-20T19:05:47.292Z,11.23
2022-09-20T19:08:56.223Z,6.43
2022-09-20T19:12:03.626Z,5.85
2022-09-20T19:15:32.612Z,6.15
2022-09-20T19:18:45.820Z,6.03
2022-09-20T19:21:58.089Z,6.07
2022-09-20T19:25:08.192Z,6.35
2022-09-20T19:28:14.360Z,5.93
2022-09-20T19:31:24.245Z,5.80
2022-09-20T19:34:30.321Z,6.20
2022-09-20T19:37:40.834Z,5.82
2022-09-20T19:40:49.237Z,6.50
2022-09-20T19:44:02.374Z,6.72
2022-09-20T19:47:18.162Z,5.68
2022-09-20T19:50:28.138Z,6.55
2022-09-20T19:53:36.881Z,5.97
2022-09-20T19:56:53.181Z,6.32
2022-09-20T19:59:59.052Z,6.45
2022-09-20T20:03:04.824Z,6.85
2022-09-20T20:06:16.521Z,6.30
2022-09-20T20:09:28.365Z,6.63
2022-09-20T20:12:36.006Z,6.80
2022-09-20T20:15:44.491Z,11.23
2022-09-20T20:21:57.669Z,7.00
2022-09-20T20:25:05.681Z,6.10
2022-09-20T20:28:11.659Z,7.07
2022-09-20T20:31:17.044Z,8.02
2022-09-20T20:34:22.044Z,8.32
2022-09-20T20:37:28.431Z,7.13
2022-09-20T20:40:36.245Z,7.43
2022-09-20T20:43:42.391Z,7.57
2022-09-20T20:46:47.813Z,6.80
2022-09-20T20:49:53.728Z,7.32
2022-09-20T20:52:59.372Z,7.03
2022-09-20T20:56:08.516Z,8.05
2022-09-20T20:59:13.939Z,7.35
2022-09-20T21:02:19.780Z,7.32
2022-09-20T21:05:25.366Z,7.63
2022-09-20T21:08:34.479Z,7.40
2022-09-20T21:11:44.691Z,7.38
2022-09-20T21:14:49.796Z,8.20
2022-09-20T21:17:55.572Z,7.75
2022-09-20T21:21:00.650Z,8.05
2022-09-20T21:24:06.949Z,8.57
2022-09-20T21:27:15.066Z,7.68
2022-09-20T21:30:20.800Z,8.63
2022-09-20T21:33:26.157Z,8.15
2022-09-20T21:36:32.265Z,8.02
2022-09-20T21:39:37.276Z,9.00
2022-09-20T21:42:45.112Z,8.68
2022-09-20T21:45:50.243Z,9.00
2022-09-20T21:48:55.525Z,9.10
2022-09-20T21:52:00.818Z,8.80
2022-09-20T21:55:08.771Z,8.73
2022-09-20T21:58:18.473Z,8.88
2022-09-20T22:01:24.733Z,9.10
2022-09-20T22:04:29.882Z,8.07
2022-09-20T22:07:37.426Z,9.48
2022-09-20T22:10:42.589Z,8.98
2022-09-20T22:13:50.946Z,9.18
2022-09-20T22:16:56.233Z,8.02
2022-09-20T22:20:01.339Z,8.95
2022-09-20T22:23:08.713Z,8.38
2022-09-20T22:26:14.833Z,9.75
2022-09-20T22:29:22.551Z,20.17
2022-09-20T22:32:27.474Z,10.37
2022-09-20T22:35:32.723Z,8.93
2022-09-20T22:38:37.827Z,9.45
2022-09-20T22:41:43.827Z,8.70
2022-09-20T22:44:51.511Z,8.90
2022-09-20T22:47:56.515Z,8.87
2022-09-20T22:51:02.264Z,8.80
2022-09-20T22:54:08.380Z,9.20
2022-09-20T22:57:13.600Z,9.43
2022-09-20T23:00:21.467Z,10.63
2022-09-20T23:03:26.484Z,8.88
2022-09-20T23:06:32.343Z,8.88
2022-09-20T23:09:37.419Z,8.73
2022-09-20T23:12:42.461Z,9.27
2022-09-20T23:15:50.223Z,9.25
2022-09-20T23:18:55.791Z,9.10
2022-09-20T23:22:01.050Z,9.90
2022-09-20T23:25:06.068Z,11.05
2022-09-20T23:28:11.203Z,11.18
2022-09-20T23:31:19.909Z,9.13
2022-09-20T23:34:24.832Z,9.40
2022-09-20T23:37:29.873Z,9.52
2022-09-20T23:40:36.498Z,10.00
2022-09-20T23:43:42.145Z,9.13
2022-09-20T23:46:49.789Z,8.38
2022-09-20T23:49:54.859Z,10.15
2022-09-20T23:52:59.994Z,9.38
2022-09-20T23:56:06.468Z,10.80
2022-09-20T23:59:11.546Z,9.82
